Gilze, Netherlands

2:40 PM CEST on September 28, 2016 (GMT +0200)
Gilze-Rijen Air Base | | Change Station

Elev 43 ft 51.56 °N, 4.94 °E | Updated 15 minutes ago

Overcast
Overcast
72 °F
Feels Like 72 °F
N
13
Wind Variable Wind from WSW

Today
High -- | Low -- °F
--% Chance of Precip.
Yesterday
High -- | Low -- °F
Precip. -- in
Pressure 30.24 in
Visibility 6.2 miles
Clouds Mostly Cloudy 30000 ft
Overcast 36000 ft
Dew Point 54 °F
Humidity 53%
Rainfall 0.00 in
Snow Depth Not available.
7:36 AM 7:24 PM
Waning Crescent, 6% visible
METAR EHGR 281225Z AUTO 25011KT 210V290 9999 BKN300 OVC360 22/12 Q1024 BLU 24011KT 9999 SCT025
Pressure 30.24 in
Visibility 6.2 miles
Clouds Mostly Cloudy 30000 ft
Overcast 36000 ft
Dew Point 54 °F
Humidity 53%
Rainfall 0.00 in
Snow Depth Not available.
7:36 AM 7:24 PM
Waning Crescent, 6% visible
METAR EHGR 281225Z AUTO 25011KT 210V290 9999 BKN300 OVC360 22/12 Q1024 BLU 24011KT 9999 SCT025

10-Day Weather Forecast

×

Almanac

Astronomy

Sep. 28, 2016 Rise Set
Actual Time
Civil Twilight
Nautical Twilight
Astronomical Twilight
Moon
Length of Visible Light
Length of Day
Tomorrow will be .
, % of the Moon is Illuminated

Today's Extremes

Country Highs Country Lows

Community

WunderPhotos

Upload Photos

1,942,247 photos uploaded!

WunderBlog® & News

Nearby

Air Quality

  Air Quality AQ Index Pollutant
Not available.

Snow Depth

Station Depth Elevation

Earthquake Activity

City Distance Mag. Time & Date
Minimum magnitude displayed is 2.5.

Coastal Water Temperatures

Place Temperature

Stations

Nearby Weather Stations

Station Location Temp. Windchill Dew Point Humidity Wind Precip. Elev Updated Type